createdAt,value
2022-08-11T00:02:52.017Z,3.57
2022-08-11T00:07:56.556Z,4.33
2022-08-11T00:13:01.432Z,2.67
2022-08-11T00:18:04.414Z,3.43
2022-08-11T00:23:10.314Z,4.57
2022-08-11T00:28:42.405Z,2.63
2022-08-11T00:33:46.150Z,5.07
2022-08-11T00:38:52.516Z,3.00
2022-08-11T00:44:04.008Z,4.63
2022-08-11T00:49:34.102Z,4.37
2022-08-11T00:54:39.837Z,4.50
2022-08-11T01:00:20.236Z,3.60
2022-08-11T01:05:51.701Z,6.67
2022-08-11T01:10:57.399Z,5.13
2022-08-11T01:16:31.165Z,4.63
2022-08-11T01:22:11.581Z,3.90
2022-08-11T01:27:35.254Z,4.07
2022-08-11T01:33:28.433Z,4.13
2022-08-11T01:38:31.063Z,2.53
2022-08-11T01:44:22.855Z,4.60
2022-08-11T01:50:08.970Z,5.67
2022-08-11T01:55:18.597Z,3.20
2022-08-11T02:00:25.201Z,3.70
2022-08-11T02:06:01.239Z,3.23
2022-08-11T02:11:30.402Z,3.33
2022-08-11T02:16:54.479Z,4.33
2022-08-11T02:22:34.676Z,3.50
2022-08-11T02:27:54.297Z,5.33
2022-08-11T02:33:27.963Z,3.77
2022-08-11T02:38:54.179Z,6.27
2022-08-11T02:44:54.065Z,4.47
2022-08-11T02:50:07.663Z,5.33
2022-08-11T02:55:56.191Z,6.53
2022-08-11T03:00:57.532Z,5.07
2022-08-11T03:06:34.337Z,4.60
2022-08-11T03:12:28.213Z,4.00
2022-08-11T03:17:36.802Z,3.73
2022-08-11T03:22:49.057Z,3.83
2022-08-11T03:28:07.252Z,5.50
2022-08-11T03:33:34.542Z,5.37
2022-08-11T03:39:06.190Z,5.87
2022-08-11T03:44:23.524Z,5.37
2022-08-11T03:49:45.955Z,7.53
2022-08-11T03:55:10.831Z,4.37
2022-08-11T04:00:30.166Z,4.10
2022-08-11T04:06:09.246Z,4.53
2022-08-11T04:11:54.938Z,4.27
2022-08-11T04:17:44.965Z,6.43
2022-08-11T04:23:12.459Z,5.07
2022-08-11T04:28:56.106Z,6.13
2022-08-11T04:34:17.999Z,5.67
2022-08-11T04:39:42.158Z,6.00
2022-08-11T04:44:57.156Z,5.43
2022-08-11T04:50:39.554Z,5.47
2022-08-11T04:56:36.072Z,5.47
2022-08-11T05:01:43.755Z,6.07
2022-08-11T05:07:09.553Z,7.10
2022-08-11T05:12:37.158Z,4.97
2022-08-11T05:18:11.940Z,7.40
2022-08-11T05:23:34.578Z,5.77
2022-08-11T05:30:06.501Z,4.47
2022-08-11T05:35:09.552Z,9.77
2022-08-11T05:40:32.263Z,8.00
2022-08-11T05:45:58.217Z,6.97
2022-08-11T05:51:29.903Z,6.40
2022-08-11T05:56:35.148Z,8.60
2022-08-11T06:01:39.319Z,9.37
2022-08-11T06:06:54.523Z,8.23
2022-08-11T06:12:16.713Z,8.53
2022-08-11T06:17:38.523Z,14.63
2022-08-11T06:22:52.349Z,13.77
2022-08-11T06:27:56.439Z,8.53
2022-08-11T06:33:01.062Z,14.23
2022-08-11T06:38:08.425Z,14.70
2022-08-11T06:43:18.784Z,14.33
2022-08-11T06:48:25.571Z,10.43
2022-08-11T06:53:34.833Z,12.30
2022-08-11T06:58:58.708Z,14.93
2022-08-11T07:04:08.263Z,11.57
2022-08-11T07:10:07.551Z,12.27
2022-08-11T07:16:11.129Z,14.63
2022-08-11T07:22:00.245Z,13.80
2022-08-11T07:26:54.544Z,16.20
2022-08-11T07:32:03.460Z,14.77
2022-08-11T07:37:12.612Z,11.32
2022-08-11T07:42:19.351Z,13.43
2022-08-11T07:47:43.226Z,9.85
2022-08-11T07:52:47.366Z,7.32
2022-08-11T07:58:16.980Z,9.43
2022-08-11T08:03:53.865Z,5.93
2022-08-11T08:09:16.821Z,4.25
2022-08-11T08:14:38.490Z,4.80
2022-08-11T08:19:47.501Z,3.05
2022-08-11T08:24:50.487Z,3.65
2022-08-11T08:30:12.241Z,3.70
2022-08-11T08:35:16.082Z,2.45
2022-08-11T08:40:19.136Z,4.80
2022-08-11T08:45:22.476Z,2.28
2022-08-11T08:50:49.392Z,5.28
2022-08-11T08:55:56.850Z,2.20
2022-08-11T09:01:01.343Z,2.47
2022-08-11T09:06:04.271Z,2.60
2022-08-11T09:11:25.411Z,4.38
2022-08-11T09:16:28.338Z,1.48
2022-08-11T09:21:34.251Z,4.95
2022-08-11T09:26:59.496Z,1.58
2022-08-11T09:32:02.226Z,2.78
2022-08-11T09:37:53.612Z,3.17
2022-08-11T09:43:05.949Z,2.53
2022-08-11T09:48:08.650Z,1.85
2022-08-11T09:53:36.113Z,1.42
2022-08-11T09:58:42.340Z,2.92
2022-08-11T10:03:47.042Z,3.33
2022-08-11T10:08:52.254Z,2.45
2022-08-11T10:14:32.760Z,2.30
2022-08-11T10:19:37.914Z,1.67
2022-08-11T10:25:00.998Z,2.67
2022-08-11T10:30:22.825Z,1.85
2022-08-11T10:35:30.994Z,1.30
2022-08-11T10:40:35.973Z,3.08
2022-08-11T10:46:02.307Z,3.15
2022-08-11T10:51:14.403Z,7.35
2022-08-11T10:56:36.943Z,1.58
2022-08-11T11:01:42.563Z,1.48
2022-08-11T11:06:48.512Z,3.65
2022-08-11T11:12:13.203Z,1.73
2022-08-11T11:17:35.303Z,2.25
2022-08-11T11:22:38.405Z,2.20
2022-08-11T11:28:13.476Z,1.88
2022-08-11T11:33:28.013Z,3.35
2022-08-11T11:38:30.944Z,1.88
2022-08-11T11:43:35.815Z,2.15
2022-08-11T11:48:39.492Z,1.70
2022-08-11T11:53:46.060Z,1.70
2022-08-11T11:59:07.779Z,2.88
2022-08-11T12:04:15.306Z,1.48
2022-08-11T12:09:22.743Z,2.95
2022-08-11T12:14:28.602Z,1.23
2022-08-11T12:19:35.468Z,1.80
2022-08-11T12:24:57.546Z,2.92
2022-08-11T12:30:09.469Z,3.45
2022-08-11T12:35:15.373Z,2.67
2022-08-11T12:41:11.204Z,0.93
2022-08-11T12:46:13.296Z,1.08
2022-08-11T12:52:11.977Z,1.00
2022-08-11T12:57:38.586Z,1.33
2022-08-11T13:03:00.739Z,1.65
2022-08-11T13:08:04.507Z,1.35
2022-08-11T13:13:55.408Z,0.90
2022-08-11T13:18:31.357Z,1.80
2022-08-11T13:23:34.159Z,0.90
2022-08-11T13:28:37.921Z,1.20
2022-08-11T13:33:46.571Z,1.63
2022-08-11T13:38:52.074Z,2.40
2022-08-11T13:43:55.637Z,1.58
2022-08-11T13:49:00.743Z,2.35
2022-08-11T13:54:09.265Z,1.58
2022-08-11T13:59:14.591Z,7.85
2022-08-11T14:04:39.995Z,7.90
2022-08-11T14:09:45.002Z,9.95
2022-08-11T14:14:54.364Z,5.30
2022-08-11T14:19:57.628Z,3.35
2022-08-11T14:25:00.636Z,2.47
2022-08-11T14:30:03.972Z,2.97
2022-08-11T14:35:07.294Z,2.10
2022-08-11T14:40:33.249Z,2.90
2022-08-11T14:45:58.708Z,1.70
2022-08-11T14:51:02.092Z,1.73
2022-08-11T14:56:31.969Z,1.92
2022-08-11T15:01:53.613Z,1.77
2022-08-11T15:06:56.391Z,2.75
2022-08-11T15:12:32.255Z,2.00
2022-08-11T15:17:43.578Z,2.05
2022-08-11T15:23:05.347Z,1.52
2022-08-11T15:28:28.011Z,1.88
2022-08-11T15:33:49.785Z,1.47
2022-08-11T15:39:04.860Z,1.70
2022-08-11T15:44:58.786Z,2.00
2022-08-11T15:50:10.731Z,3.42
2022-08-11T15:55:16.962Z,2.42
2022-08-11T16:00:38.791Z,1.67
2022-08-11T16:05:46.441Z,4.15
2022-08-11T16:10:56.278Z,1.47
2022-08-11T16:16:15.735Z,2.20
2022-08-11T16:21:35.067Z,2.10
2022-08-11T16:27:08.580Z,4.97
2022-08-11T16:32:18.150Z,2.85
2022-08-11T16:37:40.164Z,3.30
2022-08-11T16:43:10.232Z,4.00
2022-08-11T16:48:35.974Z,3.95
2022-08-11T16:53:59.779Z,3.88
2022-08-11T16:59:17.013Z,6.32
2022-08-11T17:04:47.351Z,6.37
2022-08-11T17:10:31.335Z,5.40
2022-08-11T17:15:51.069Z,6.82
2022-08-11T17:20:55.610Z,4.07
2022-08-11T17:26:03.659Z,3.25
2022-08-11T17:31:26.412Z,3.27
2022-08-11T17:36:29.324Z,3.88
2022-08-11T17:41:51.027Z,2.47
2022-08-11T17:47:13.218Z,4.15
2022-08-11T17:52:35.573Z,1.95
2022-08-11T17:57:58.412Z,2.33
2022-08-11T18:03:20.111Z,2.28
2022-08-11T18:08:41.915Z,2.67
2022-08-11T18:14:04.217Z,4.47
2022-08-11T18:19:25.912Z,2.30
2022-08-11T18:24:56.391Z,3.07
2022-08-11T18:30:20.109Z,4.03
2022-08-11T18:35:42.551Z,4.13
2022-08-11T18:41:04.957Z,6.83
2022-08-11T18:46:29.338Z,7.80
2022-08-11T18:51:51.212Z,8.30
2022-08-11T18:57:14.367Z,3.77
2022-08-11T19:02:48.593Z,4.70
2022-08-11T19:08:11.945Z,4.27
2022-08-11T19:13:33.405Z,6.00
2022-08-11T19:18:57.111Z,2.77
2022-08-11T19:24:22.146Z,5.50
2022-08-11T19:30:07.851Z,3.83
2022-08-11T19:35:29.641Z,3.47
2022-08-11T19:40:52.338Z,3.53
2022-08-11T19:46:16.566Z,3.63
2022-08-11T19:51:39.923Z,6.93
2022-08-11T19:57:05.359Z,3.47
2022-08-11T20:02:27.855Z,4.57
2022-08-11T20:07:50.269Z,4.00
2022-08-11T20:13:21.203Z,4.20
2022-08-11T20:18:43.885Z,3.30
2022-08-11T20:24:07.414Z,4.80
2022-08-11T20:29:29.201Z,5.67
2022-08-11T20:34:51.504Z,6.40
2022-08-11T20:40:15.956Z,6.67
2022-08-11T20:45:38.144Z,4.63
2022-08-11T20:51:16.850Z,4.33
2022-08-11T20:56:38.954Z,4.60
2022-08-11T21:02:03.082Z,3.63
2022-08-11T21:07:28.749Z,8.53
2022-08-11T21:12:55.264Z,5.73
2022-08-11T21:18:28.619Z,5.60
2022-08-11T21:23:52.364Z,6.97
2022-08-11T21:29:15.748Z,7.57
2022-08-11T21:34:38.985Z,7.20
2022-08-11T21:40:01.326Z,7.63
2022-08-11T21:45:24.633Z,8.23
2022-08-11T21:50:45.917Z,7.07
2022-08-11T21:56:08.710Z,8.70
2022-08-11T22:01:34.484Z,6.90
2022-08-11T22:06:56.415Z,5.97
2022-08-11T22:12:29.543Z,7.87
2022-08-11T22:17:58.960Z,6.13
2022-08-11T22:23:20.816Z,7.87
2022-08-11T22:28:42.921Z,7.63
2022-08-11T22:34:04.406Z,9.53
2022-08-11T22:39:25.949Z,8.20
2022-08-11T22:44:47.781Z,4.73
2022-08-11T22:50:14.655Z,6.13
2022-08-11T22:55:37.373Z,8.77
2022-08-11T23:00:59.742Z,7.20
2022-08-11T23:06:22.023Z,6.20
2022-08-11T23:11:55.399Z,5.00
2022-08-11T23:17:27.987Z,6.23
2022-08-11T23:22:50.699Z,5.87
2022-08-11T23:28:12.673Z,6.13
2022-08-11T23:33:36.797Z,7.53
2022-08-11T23:38:58.091Z,4.57
2022-08-11T23:44:21.385Z,5.97
2022-08-11T23:49:43.144Z,6.27
2022-08-11T23:55:05.401Z,3.87
